Babuskin, Russia
Current Conditions -  °F | °C
As of 1:30 PM on Wednesday 26 Nov 2014 (Local Time) from UIUU Reporting Station
Few Clouds Few Clouds  
Wind Chill: -6°   Ceiling: Unl
Heat Index:   Visibility: 6mi
Dew Point: -9°   Wind: 11mph
Humidity: 44%   Direction: 260°W
Pressure: 29.94"   Gusts: NA
Location:  51.72°N, 105.85°E
Report Text: UIUU 260530Z 26005MPS 220V290 9999 FEW033CB M13/M23 Q1014 NOSIGRMK QFE716/0955 26410560
Loading
Personal Weather Stations






























Interactive Weather Map New forecast layout! Learn more

10-Day Weather Forecast

Advertisements
Track Severe Weather on mobile